Loma del Medio, Argentina
Current Conditions -  °F | °C
As of 11:00 PM on Sunday 21 Dec 2014 (Local Time) from SANT Reporting Station
Overcast Overcast  
Wind Chill: 64°   Ceiling: 3000
Heat Index: 64°   Visibility: 6mi
Dew Point: 55°   Wind: 9mph
Humidity: 73%   Direction: 230°SW
Pressure: 30.03"   Gusts: NA
Location:  27.37°S, 64.77°W
Report Text: SANT 220200Z 23008KT 9999 SCT018 BKN030OVC040 18/13 Q1017
Loading
Personal Weather Stations






























Interactive Weather Map New forecast layout! Learn more

10-Day Weather Forecast

Advertisements
Track Severe Weather on mobile